sensor_id;sensor_type;location;lat;lon;timestamp;temperature;humidity
18882;DHT22;9573;50.948;11.600;2024-02-26T00:00:51;0.00;99.90
18882;DHT22;9573;50.948;11.600;2024-02-26T00:03:18;0.00;99.90
18882;DHT22;9573;50.948;11.600;2024-02-26T00:05:45;-0.10;99.90
18882;DHT22;9573;50.948;11.600;2024-02-26T00:08:12;0.00;99.90
18882;DHT22;9573;50.948;11.600;2024-02-26T00:10:41;0.00;99.90
18882;DHT22;9573;50.948;11.600;2024-02-26T00:13:08;-0.10;99.90
18882;DHT22;9573;50.948;11.600;2024-02-26T00:15:35;0.30;99.90
18882;DHT22;9573;50.948;11.600;2024-02-26T00:18:02;-0.10;99.90
18882;DHT22;9573;50.948;11.600;2024-02-26T00:20:29;-0.10;99.90
18882;DHT22;9573;50.948;11.600;2024-02-26T00:22:56;-0.10;99.90
18882;DHT22;9573;50.948;11.600;2024-02-26T00:25:23;-0.20;99.90
18882;DHT22;9573;50.948;11.600;2024-02-26T00:27:51;-0.10;99.90
18882;DHT22;9573;50.948;11.600;2024-02-26T00:30:18;-0.10;99.90
18882;DHT22;9573;50.948;11.600;2024-02-26T00:32:45;-0.20;99.90
18882;DHT22;9573;50.948;11.600;2024-02-26T00:35:12;-0.20;99.90
18882;DHT22;9573;50.948;11.600;2024-02-26T00:37:41;-0.20;99.90
18882;DHT22;9573;50.948;11.600;2024-02-26T00:40:09;-0.20;99.90
18882;DHT22;9573;50.948;11.600;2024-02-26T00:42:36;-0.30;99.90
18882;DHT22;9573;50.948;11.600;2024-02-26T00:45:05;-0.30;99.90
18882;DHT22;9573;50.948;11.600;2024-02-26T00:47:33;-0.30;99.90
18882;DHT22;9573;50.948;11.600;2024-02-26T00:50:00;-0.30;99.90
18882;DHT22;9573;50.948;11.600;2024-02-26T00:52:27;-0.20;99.90
18882;DHT22;9573;50.948;11.600;2024-02-26T00:54:54;0.00;99.90
18882;DHT22;9573;50.948;11.600;2024-02-26T00:57:21;-0.10;99.90
18882;DHT22;9573;50.948;11.600;2024-02-26T00:59:48;-0.30;99.90
18882;DHT22;9573;50.948;11.600;2024-02-26T01:02:17;-0.30;99.90
18882;DHT22;9573;50.948;11.600;2024-02-26T01:04:44;-0.30;99.90
18882;DHT22;9573;50.948;11.600;2024-02-26T01:07:11;-0.30;99.90
18882;DHT22;9573;50.948;11.600;2024-02-26T01:09:38;-0.30;99.90
18882;DHT22;9573;50.948;11.600;2024-02-26T01:12:06;-0.30;99.90
18882;DHT22;9573;50.948;11.600;2024-02-26T01:14:33;-0.30;99.90
18882;DHT22;9573;50.948;11.600;2024-02-26T01:17:00;-0.40;99.90
18882;DHT22;9573;50.948;11.600;2024-02-26T01:19:28;-0.40;99.90
18882;DHT22;9573;50.948;11.600;2024-02-26T01:21:55;-0.40;99.90
18882;DHT22;9573;50.948;11.600;2024-02-26T01:24:22;-0.30;99.90
18882;DHT22;9573;50.948;11.600;2024-02-26T01:26:49;-0.60;99.90
18882;DHT22;9573;50.948;11.600;2024-02-26T01:29:17;-0.40;99.90
18882;DHT22;9573;50.948;11.600;2024-02-26T01:31:44;-0.40;99.90
18882;DHT22;9573;50.948;11.600;2024-02-26T01:34:11;-0.50;99.90
18882;DHT22;9573;50.948;11.600;2024-02-26T01:36:39;-0.50;99.90
18882;DHT22;9573;50.948;11.600;2024-02-26T01:39:06;-0.50;99.90
18882;DHT22;9573;50.948;11.600;2024-02-26T01:41:33;-0.50;99.90
18882;DHT22;9573;50.948;11.600;2024-02-26T01:44:00;-0.50;99.90
18882;DHT22;9573;50.948;11.600;2024-02-26T01:46:28;-0.50;99.90
18882;DHT22;9573;50.948;11.600;2024-02-26T01:48:56;-0.50;99.90
18882;DHT22;9573;50.948;11.600;2024-02-26T01:51:23;0.70;99.90
18882;DHT22;9573;50.948;11.600;2024-02-26T01:53:52;-0.50;99.90
18882;DHT22;9573;50.948;11.600;2024-02-26T01:56:20;-0.40;99.90
18882;DHT22;9573;50.948;11.600;2024-02-26T01:58:48;-0.40;99.90
18882;DHT22;9573;50.948;11.600;2024-02-26T02:01:16;-0.30;99.90
18882;DHT22;9573;50.948;11.600;2024-02-26T02:03:46;-0.30;99.90
18882;DHT22;9573;50.948;11.600;2024-02-26T02:06:13;-0.30;99.90
18882;DHT22;9573;50.948;11.600;2024-02-26T02:08:40;-0.40;99.90
18882;DHT22;9573;50.948;11.600;2024-02-26T02:11:09;-0.40;99.90
18882;DHT22;9573;50.948;11.600;2024-02-26T02:13:37;-0.40;99.90
18882;DHT22;9573;50.948;11.600;2024-02-26T02:16:04;-0.50;99.90
18882;DHT22;9573;50.948;11.600;2024-02-26T02:18:31;-0.40;99.90
18882;DHT22;9573;50.948;11.600;2024-02-26T02:21:01;-0.40;99.90
18882;DHT22;9573;50.948;11.600;2024-02-26T02:23:28;-0.30;99.90
18882;DHT22;9573;50.948;11.600;2024-02-26T02:25:56;-0.40;99.90
18882;DHT22;9573;50.948;11.600;2024-02-26T02:28:25;-0.40;99.90
18882;DHT22;9573;50.948;11.600;2024-02-26T02:30:54;-0.40;99.90
18882;DHT22;9573;50.948;11.600;2024-02-26T02:33:22;-0.40;99.90
18882;DHT22;9573;50.948;11.600;2024-02-26T02:35:51;0.10;99.90
18882;DHT22;9573;50.948;11.600;2024-02-26T02:38:21;-0.30;99.90
18882;DHT22;9573;50.948;11.600;2024-02-26T02:40:51;-0.30;99.90
18882;DHT22;9573;50.948;11.600;2024-02-26T02:43:18;-0.20;99.90
18882;DHT22;9573;50.948;11.600;2024-02-26T02:45:45;-0.20;99.90
18882;DHT22;9573;50.948;11.600;2024-02-26T02:48:12;-0.30;99.90
18882;DHT22;9573;50.948;11.600;2024-02-26T02:50:39;-0.30;99.90
18882;DHT22;9573;50.948;11.600;2024-02-26T02:53:06;-0.30;99.90
18882;DHT22;9573;50.948;11.600;2024-02-26T02:55:35;-0.30;99.90
18882;DHT22;9573;50.948;11.600;2024-02-26T02:58:02;-0.30;99.90
18882;DHT22;9573;50.948;11.600;2024-02-26T03:00:29;-0.40;99.90
18882;DHT22;9573;50.948;11.600;2024-02-26T03:02:56;-0.40;99.90
18882;DHT22;9573;50.948;11.600;2024-02-26T03:05:23;-0.10;99.90
18882;DHT22;9573;50.948;11.600;2024-02-26T03:07:50;-0.40;99.90
18882;DHT22;9573;50.948;11.600;2024-02-26T03:10:18;-0.40;99.90
18882;DHT22;9573;50.948;11.600;2024-02-26T03:12:47;-0.40;99.90
18882;DHT22;9573;50.948;11.600;2024-02-26T03:15:14;-0.40;99.90
18882;DHT22;9573;50.948;11.600;2024-02-26T03:17:41;-0.50;99.90
18882;DHT22;9573;50.948;11.600;2024-02-26T03:20:09;-0.50;99.90
18882;DHT22;9573;50.948;11.600;2024-02-26T03:22:38;-0.50;99.90
18882;DHT22;9573;50.948;11.600;2024-02-26T03:25:06;-0.60;99.90
18882;DHT22;9573;50.948;11.600;2024-02-26T03:27:34;-0.70;99.90
18882;DHT22;9573;50.948;11.600;2024-02-26T03:30:03;-0.70;99.90
18882;DHT22;9573;50.948;11.600;2024-02-26T03:32:31;-0.70;99.90
18882;DHT22;9573;50.948;11.600;2024-02-26T03:34:58;-0.70;99.90
18882;DHT22;9573;50.948;11.600;2024-02-26T03:37:26;-0.80;99.90
18882;DHT22;9573;50.948;11.600;2024-02-26T03:39:53;-0.80;99.90
18882;DHT22;9573;50.948;11.600;2024-02-26T03:42:20;-0.80;99.90
18882;DHT22;9573;50.948;11.600;2024-02-26T03:44:47;-0.80;99.90
18882;DHT22;9573;50.948;11.600;2024-02-26T03:47:16;-0.80;99.90
18882;DHT22;9573;50.948;11.600;2024-02-26T03:49:43;-0.80;99.90
18882;DHT22;9573;50.948;11.600;2024-02-26T03:52:10;-1.30;99.90
18882;DHT22;9573;50.948;11.600;2024-02-26T03:54:37;-0.50;99.90
18882;DHT22;9573;50.948;11.600;2024-02-26T03:57:04;-0.70;99.90
18882;DHT22;9573;50.948;11.600;2024-02-26T03:59:31;-0.80;99.90
18882;DHT22;9573;50.948;11.600;2024-02-26T04:01:58;-0.70;99.90
18882;DHT22;9573;50.948;11.600;2024-02-26T04:04:28;-0.80;99.90
18882;DHT22;9573;50.948;11.600;2024-02-26T04:06:55;-0.80;99.90
18882;DHT22;9573;50.948;11.600;2024-02-26T04:09:22;-0.80;99.90
18882;DHT22;9573;50.948;11.600;2024-02-26T04:11:49;-0.80;99.90
18882;DHT22;9573;50.948;11.600;2024-02-26T04:14:15;-0.70;99.90
18882;DHT22;9573;50.948;11.600;2024-02-26T04:16:42;-0.60;99.90
18882;DHT22;9573;50.948;11.600;2024-02-26T04:19:09;-0.80;99.90
18882;DHT22;9573;50.948;11.600;2024-02-26T04:21:40;-0.70;99.90
18882;DHT22;9573;50.948;11.600;2024-02-26T04:24:07;-0.70;99.90
18882;DHT22;9573;50.948;11.600;2024-02-26T04:26:35;-0.70;99.90
18882;DHT22;9573;50.948;11.600;2024-02-26T04:29:02;-0.70;99.90
18882;DHT22;9573;50.948;11.600;2024-02-26T04:31:29;-0.60;99.90
18882;DHT22;9573;50.948;11.600;2024-02-26T04:33:58;-0.60;99.90
18882;DHT22;9573;50.948;11.600;2024-02-26T04:36:25;-0.60;99.90
18882;DHT22;9573;50.948;11.600;2024-02-26T04:38:54;-0.50;99.90
18882;DHT22;9573;50.948;11.600;2024-02-26T04:41:21;-0.50;99.90
18882;DHT22;9573;50.948;11.600;2024-02-26T04:43:48;-0.50;99.90
18882;DHT22;9573;50.948;11.600;2024-02-26T04:46:15;-0.50;99.90
18882;DHT22;9573;50.948;11.600;2024-02-26T04:48:42;-0.40;99.90
18882;DHT22;9573;50.948;11.600;2024-02-26T04:51:11;-0.30;99.90
18882;DHT22;9573;50.948;11.600;2024-02-26T04:53:38;-0.30;99.90
18882;DHT22;9573;50.948;11.600;2024-02-26T04:56:06;-0.20;99.90
18882;DHT22;9573;50.948;11.600;2024-02-26T04:58:34;-0.10;99.90
18882;DHT22;9573;50.948;11.600;2024-02-26T05:01:01;-0.10;99.90
18882;DHT22;9573;50.948;11.600;2024-02-26T05:03:29;-0.10;99.90
18882;DHT22;9573;50.948;11.600;2024-02-26T05:05:56;0.00;99.90
18882;DHT22;9573;50.948;11.600;2024-02-26T05:08:23;0.00;99.90
18882;DHT22;9573;50.948;11.600;2024-02-26T05:10:51;0.00;99.90
18882;DHT22;9573;50.948;11.600;2024-02-26T05:13:19;-0.10;99.90
18882;DHT22;9573;50.948;11.600;2024-02-26T05:15:46;-0.20;99.90
18882;DHT22;9573;50.948;11.600;2024-02-26T05:18:14;-0.20;99.90
18882;DHT22;9573;50.948;11.600;2024-02-26T05:20:41;-0.20;99.90
18882;DHT22;9573;50.948;11.600;2024-02-26T05:23:09;-0.10;99.90
18882;DHT22;9573;50.948;11.600;2024-02-26T05:25:36;-0.10;99.90
18882;DHT22;9573;50.948;11.600;2024-02-26T05:28:04;-0.10;99.90
18882;DHT22;9573;50.948;11.600;2024-02-26T05:30:32;0.00;99.90
18882;DHT22;9573;50.948;11.600;2024-02-26T05:33:00;0.00;99.90
18882;DHT22;9573;50.948;11.600;2024-02-26T05:35:27;0.10;99.90
18882;DHT22;9573;50.948;11.600;2024-02-26T05:37:54;2.40;99.90
18882;DHT22;9573;50.948;11.600;2024-02-26T05:40:23;0.10;99.90
18882;DHT22;9573;50.948;11.600;2024-02-26T05:42:50;0.20;99.90
18882;DHT22;9573;50.948;11.600;2024-02-26T05:45:17;0.20;99.90
18882;DHT22;9573;50.948;11.600;2024-02-26T05:47:46;0.20;99.90
18882;DHT22;9573;50.948;11.600;2024-02-26T05:50:13;0.20;99.90
18882;DHT22;9573;50.948;11.600;2024-02-26T05:52:41;0.30;99.90
18882;DHT22;9573;50.948;11.600;2024-02-26T05:55:11;0.20;99.90
18882;DHT22;9573;50.948;11.600;2024-02-26T05:57:38;0.20;99.90
18882;DHT22;9573;50.948;11.600;2024-02-26T06:00:06;0.20;99.90
18882;DHT22;9573;50.948;11.600;2024-02-26T06:02:38;0.30;99.90
18882;DHT22;9573;50.948;11.600;2024-02-26T06:05:09;0.40;99.90
18882;DHT22;9573;50.948;11.600;2024-02-26T06:07:36;0.50;99.90
18882;DHT22;9573;50.948;11.600;2024-02-26T06:10:04;0.60;99.90
18882;DHT22;9573;50.948;11.600;2024-02-26T06:12:35;0.60;99.90
18882;DHT22;9573;50.948;11.600;2024-02-26T06:15:03;0.80;99.90
18882;DHT22;9573;50.948;11.600;2024-02-26T06:17:30;0.80;99.90
18882;DHT22;9573;50.948;11.600;2024-02-26T06:19:58;0.90;99.90
18882;DHT22;9573;50.948;11.600;2024-02-26T06:22:27;1.00;99.90
18882;DHT22;9573;50.948;11.600;2024-02-26T06:24:56;1.00;99.90
18882;DHT22;9573;50.948;11.600;2024-02-26T06:27:24;1.00;99.90
18882;DHT22;9573;50.948;11.600;2024-02-26T06:29:51;1.10;99.90
18882;DHT22;9573;50.948;11.600;2024-02-26T06:32:18;1.20;99.90
18882;DHT22;9573;50.948;11.600;2024-02-26T06:34:46;1.30;99.90
18882;DHT22;9573;50.948;11.600;2024-02-26T06:37:13;1.40;99.90
18882;DHT22;9573;50.948;11.600;2024-02-26T06:39:41;1.50;99.90
18882;DHT22;9573;50.948;11.600;2024-02-26T06:42:08;1.50;99.90
18882;DHT22;9573;50.948;11.600;2024-02-26T06:44:36;1.70;99.90
18882;DHT22;9573;50.948;11.600;2024-02-26T06:47:03;1.70;99.90
18882;DHT22;9573;50.948;11.600;2024-02-26T06:49:30;1.80;99.90
18882;DHT22;9573;50.948;11.600;2024-02-26T06:51:58;1.90;99.90
18882;DHT22;9573;50.948;11.600;2024-02-26T06:54:25;2.00;99.90
18882;DHT22;9573;50.948;11.600;2024-02-26T06:56:54;2.20;99.90
18882;DHT22;9573;50.948;11.600;2024-02-26T06:59:21;2.20;99.90
18882;DHT22;9573;50.948;11.600;2024-02-26T07:01:49;2.30;99.90
18882;DHT22;9573;50.948;11.600;2024-02-26T07:04:16;2.30;99.90
18882;DHT22;9573;50.948;11.600;2024-02-26T07:06:46;2.30;99.90
18882;DHT22;9573;50.948;11.600;2024-02-26T07:09:13;2.50;99.90
18882;DHT22;9573;50.948;11.600;2024-02-26T07:11:41;2.50;99.90
18882;DHT22;9573;50.948;11.600;2024-02-26T07:14:11;2.40;99.90
18882;DHT22;9573;50.948;11.600;2024-02-26T07:16:39;2.50;99.90
18882;DHT22;9573;50.948;11.600;2024-02-26T07:19:06;2.50;99.90
18882;DHT22;9573;50.948;11.600;2024-02-26T07:21:33;2.60;99.90
18882;DHT22;9573;50.948;11.600;2024-02-26T07:24:00;2.70;99.90
18882;DHT22;9573;50.948;11.600;2024-02-26T07:26:27;2.70;99.90
18882;DHT22;9573;50.948;11.600;2024-02-26T07:28:56;2.80;99.90
18882;DHT22;9573;50.948;11.600;2024-02-26T07:31:24;3.00;99.90
18882;DHT22;9573;50.948;11.600;2024-02-26T07:33:51;3.10;99.90
18882;DHT22;9573;50.948;11.600;2024-02-26T07:36:19;3.20;99.90
18882;DHT22;9573;50.948;11.600;2024-02-26T07:38:46;3.20;99.90
18882;DHT22;9573;50.948;11.600;2024-02-26T07:41:13;3.00;99.90
18882;DHT22;9573;50.948;11.600;2024-02-26T07:43:40;2.80;99.90
18882;DHT22;9573;50.948;11.600;2024-02-26T07:46:07;2.90;99.90
18882;DHT22;9573;50.948;11.600;2024-02-26T07:48:36;3.00;99.90
18882;DHT22;9573;50.948;11.600;2024-02-26T07:51:03;3.10;99.90
18882;DHT22;9573;50.948;11.600;2024-02-26T07:53:30;3.10;99.90
18882;DHT22;9573;50.948;11.600;2024-02-26T07:55:57;3.10;99.90
18882;DHT22;9573;50.948;11.600;2024-02-26T07:58:24;3.30;99.90
18882;DHT22;9573;50.948;11.600;2024-02-26T08:00:51;3.40;99.90
18882;DHT22;9573;50.948;11.600;2024-02-26T08:03:18;3.50;99.90
18882;DHT22;9573;50.948;11.600;2024-02-26T08:05:47;3.70;99.90
18882;DHT22;9573;50.948;11.600;2024-02-26T08:08:14;3.70;99.90
18882;DHT22;9573;50.948;11.600;2024-02-26T08:10:41;3.80;99.90
18882;DHT22;9573;50.948;11.600;2024-02-26T08:13:08;4.00;99.90
18882;DHT22;9573;50.948;11.600;2024-02-26T08:15:35;4.10;99.90
18882;DHT22;9573;50.948;11.600;2024-02-26T08:18:03;4.30;99.90
18882;DHT22;9573;50.948;11.600;2024-02-26T08:20:31;4.40;99.90
18882;DHT22;9573;50.948;11.600;2024-02-26T08:23:00;4.40;99.90
18882;DHT22;9573;50.948;11.600;2024-02-26T08:25:27;4.40;99.90
18882;DHT22;9573;50.948;11.600;2024-02-26T08:27:54;4.50;99.90
18882;DHT22;9573;50.948;11.600;2024-02-26T08:30:21;4.60;99.90
18882;DHT22;9573;50.948;11.600;2024-02-26T08:32:48;4.80;99.90
18882;DHT22;9573;50.948;11.600;2024-02-26T08:35:16;5.10;99.90
18882;DHT22;9573;50.948;11.600;2024-02-26T08:37:44;5.40;99.90
18882;DHT22;9573;50.948;11.600;2024-02-26T08:40:13;5.80;99.90
18882;DHT22;9573;50.948;11.600;2024-02-26T08:42:40;6.10;99.90
18882;DHT22;9573;50.948;11.600;2024-02-26T08:45:08;6.10;99.90
18882;DHT22;9573;50.948;11.600;2024-02-26T08:47:36;6.00;99.90
18882;DHT22;9573;50.948;11.600;2024-02-26T08:50:04;5.90;99.90
18882;DHT22;9573;50.948;11.600;2024-02-26T08:52:32;5.90;99.90
18882;DHT22;9573;50.948;11.600;2024-02-26T08:54:59;5.80;99.90
18882;DHT22;9573;50.948;11.600;2024-02-26T08:57:27;5.60;99.90
18882;DHT22;9573;50.948;11.600;2024-02-26T08:59:54;5.60;99.90
18882;DHT22;9573;50.948;11.600;2024-02-26T09:02:21;5.60;99.90
18882;DHT22;9573;50.948;11.600;2024-02-26T09:04:48;5.50;99.90
18882;DHT22;9573;50.948;11.600;2024-02-26T09:07:16;5.50;99.90
18882;DHT22;9573;50.948;11.600;2024-02-26T09:09:43;5.50;99.90
18882;DHT22;9573;50.948;11.600;2024-02-26T09:12:10;5.50;99.90
18882;DHT22;9573;50.948;11.600;2024-02-26T09:14:39;5.40;99.90
18882;DHT22;9573;50.948;11.600;2024-02-26T09:17:05;5.40;99.90
18882;DHT22;9573;50.948;11.600;2024-02-26T09:19:33;5.60;99.90
18882;DHT22;9573;50.948;11.600;2024-02-26T09:22:00;5.70;99.90
18882;DHT22;9573;50.948;11.600;2024-02-26T09:24:27;5.60;99.90
18882;DHT22;9573;50.948;11.600;2024-02-26T09:26:55;5.60;99.90
18882;DHT22;9573;50.948;11.600;2024-02-26T09:29:22;5.70;99.90
18882;DHT22;9573;50.948;11.600;2024-02-26T09:31:51;5.90;99.90
18882;DHT22;9573;50.948;11.600;2024-02-26T09:34:18;6.00;99.90
18882;DHT22;9573;50.948;11.600;2024-02-26T09:36:45;6.10;99.90
18882;DHT22;9573;50.948;11.600;2024-02-26T09:39:12;6.20;99.90
18882;DHT22;9573;50.948;11.600;2024-02-26T09:41:40;6.40;99.90
18882;DHT22;9573;50.948;11.600;2024-02-26T09:44:07;6.50;99.90
18882;DHT22;9573;50.948;11.600;2024-02-26T09:46:36;6.70;99.90
18882;DHT22;9573;50.948;11.600;2024-02-26T09:49:05;6.60;99.90
18882;DHT22;9573;50.948;11.600;2024-02-26T09:51:33;6.70;99.90
18882;DHT22;9573;50.948;11.600;2024-02-26T09:54:00;6.80;99.90
18882;DHT22;9573;50.948;11.600;2024-02-26T09:56:28;7.00;99.90
18882;DHT22;9573;50.948;11.600;2024-02-26T09:58:56;7.10;99.90
18882;DHT22;9573;50.948;11.600;2024-02-26T10:01:24;7.00;99.90
18882;DHT22;9573;50.948;11.600;2024-02-26T10:03:55;7.10;99.90
18882;DHT22;9573;50.948;11.600;2024-02-26T10:06:26;7.20;99.90
18882;DHT22;9573;50.948;11.600;2024-02-26T10:08:54;7.50;99.90
18882;DHT22;9573;50.948;11.600;2024-02-26T10:11:24;7.70;99.90
18882;DHT22;9573;50.948;11.600;2024-02-26T10:13:51;8.00;99.90
18882;DHT22;9573;50.948;11.600;2024-02-26T10:16:19;8.00;99.90
18882;DHT22;9573;50.948;11.600;2024-02-26T10:18:47;8.20;99.90
18882;DHT22;9573;50.948;11.600;2024-02-26T10:21:16;8.40;99.90
18882;DHT22;9573;50.948;11.600;2024-02-26T10:23:46;8.50;99.90
18882;DHT22;9573;50.948;11.600;2024-02-26T10:26:14;8.60;99.90
18882;DHT22;9573;50.948;11.600;2024-02-26T10:28:42;8.60;99.90
18882;DHT22;9573;50.948;11.600;2024-02-26T10:31:11;8.80;99.90
18882;DHT22;9573;50.948;11.600;2024-02-26T10:33:39;9.00;99.90
18882;DHT22;9573;50.948;11.600;2024-02-26T10:36:07;9.30;99.90
18882;DHT22;9573;50.948;11.600;2024-02-26T10:38:35;9.50;99.90
18882;DHT22;9573;50.948;11.600;2024-02-26T10:41:04;9.80;99.90
18882;DHT22;9573;50.948;11.600;2024-02-26T10:43:31;10.40;99.90
18882;DHT22;9573;50.948;11.600;2024-02-26T10:45:59;11.10;99.90
18882;DHT22;9573;50.948;11.600;2024-02-26T10:48:26;12.00;99.90
18882;DHT22;9573;50.948;11.600;2024-02-26T10:50:53;12.90;99.90
18882;DHT22;9573;50.948;11.600;2024-02-26T10:53:22;13.50;99.90
18882;DHT22;9573;50.948;11.600;2024-02-26T10:55:57;14.00;99.90
18882;DHT22;9573;50.948;11.600;2024-02-26T10:58:27;14.30;99.90
18882;DHT22;9573;50.948;11.600;2024-02-26T11:00:56;14.20;99.90
18882;DHT22;9573;50.948;11.600;2024-02-26T11:03:24;14.00;99.90
18882;DHT22;9573;50.948;11.600;2024-02-26T11:05:52;13.90;99.90
18882;DHT22;9573;50.948;11.600;2024-02-26T11:08:20;13.70;99.90
18882;DHT22;9573;50.948;11.600;2024-02-26T11:10:47;12.90;99.90
18882;DHT22;9573;50.948;11.600;2024-02-26T11:13:18;13.10;99.90
18882;DHT22;9573;50.948;11.600;2024-02-26T11:15:47;13.10;99.90
18882;DHT22;9573;50.948;11.600;2024-02-26T11:18:15;13.40;99.90
18882;DHT22;9573;50.948;11.600;2024-02-26T11:20:43;13.50;99.90
18882;DHT22;9573;50.948;11.600;2024-02-26T11:23:11;13.50;99.90
18882;DHT22;9573;50.948;11.600;2024-02-26T11:25:38;13.60;99.90
18882;DHT22;9573;50.948;11.600;2024-02-26T11:28:10;13.50;99.90
18882;DHT22;9573;50.948;11.600;2024-02-26T11:30:44;13.20;99.90
18882;DHT22;9573;50.948;11.600;2024-02-26T11:33:14;11.50;99.90
18882;DHT22;9573;50.948;11.600;2024-02-26T11:35:42;12.70;99.90
18882;DHT22;9573;50.948;11.600;2024-02-26T11:38:17;12.30;99.90
18882;DHT22;9573;50.948;11.600;2024-02-26T11:40:47;12.10;99.90
18882;DHT22;9573;50.948;11.600;2024-02-26T11:43:14;11.90;99.90
18882;DHT22;9573;50.948;11.600;2024-02-26T11:45:52;11.90;99.90
18882;DHT22;9573;50.948;11.600;2024-02-26T11:48:23;12.00;99.90
18882;DHT22;9573;50.948;11.600;2024-02-26T11:50:52;12.10;99.90
18882;DHT22;9573;50.948;11.600;2024-02-26T11:53:26;12.20;99.90
18882;DHT22;9573;50.948;11.600;2024-02-26T11:56:21;12.50;99.90
18882;DHT22;9573;50.948;11.600;2024-02-26T11:58:53;12.60;99.90
18882;DHT22;9573;50.948;11.600;2024-02-26T12:01:40;12.60;99.90
18882;DHT22;9573;50.948;11.600;2024-02-26T12:04:15;12.50;99.90
18882;DHT22;9573;50.948;11.600;2024-02-26T12:06:50;12.70;99.90
18882;DHT22;9573;50.948;11.600;2024-02-26T12:09:37;12.70;99.90
18882;DHT22;9573;50.948;11.600;2024-02-26T12:12:06;12.70;99.90
18882;DHT22;9573;50.948;11.600;2024-02-26T12:14:35;12.80;99.90
18882;DHT22;9573;50.948;11.600;2024-02-26T12:17:07;12.70;99.90
18882;DHT22;9573;50.948;11.600;2024-02-26T12:19:35;12.70;99.90
18882;DHT22;9573;50.948;11.600;2024-02-26T12:22:02;12.50;99.90
18882;DHT22;9573;50.948;11.600;2024-02-26T12:24:30;12.30;99.90
18882;DHT22;9573;50.948;11.600;2024-02-26T12:26:57;12.20;99.90
18882;DHT22;9573;50.948;11.600;2024-02-26T12:29:24;12.20;99.90
18882;DHT22;9573;50.948;11.600;2024-02-26T12:31:52;12.10;99.90
18882;DHT22;9573;50.948;11.600;2024-02-26T12:34:20;12.10;99.90
18882;DHT22;9573;50.948;11.600;2024-02-26T12:36:48;12.10;99.90
18882;DHT22;9573;50.948;11.600;2024-02-26T12:39:15;12.40;99.90
18882;DHT22;9573;50.948;11.600;2024-02-26T12:41:42;12.30;99.90
18882;DHT22;9573;50.948;11.600;2024-02-26T12:44:14;12.50;99.90
18882;DHT22;9573;50.948;11.600;2024-02-26T12:46:42;12.80;99.90
18882;DHT22;9573;50.948;11.600;2024-02-26T12:49:14;13.10;99.90
18882;DHT22;9573;50.948;11.600;2024-02-26T12:51:45;13.10;99.90
18882;DHT22;9573;50.948;11.600;2024-02-26T12:54:13;13.10;99.90
18882;DHT22;9573;50.948;11.600;2024-02-26T12:56:40;12.90;99.90
18882;DHT22;9573;50.948;11.600;2024-02-26T12:59:08;12.70;99.90
18882;DHT22;9573;50.948;11.600;2024-02-26T13:01:35;12.70;99.90
18882;DHT22;9573;50.948;11.600;2024-02-26T13:04:03;12.80;99.90
18882;DHT22;9573;50.948;11.600;2024-02-26T13:06:32;13.00;99.90
18882;DHT22;9573;50.948;11.600;2024-02-26T13:09:01;13.10;99.90
18882;DHT22;9573;50.948;11.600;2024-02-26T13:11:30;13.30;99.90
18882;DHT22;9573;50.948;11.600;2024-02-26T13:13:57;13.50;99.90
18882;DHT22;9573;50.948;11.600;2024-02-26T13:16:25;13.50;99.90
18882;DHT22;9573;50.948;11.600;2024-02-26T13:18:53;13.60;99.90
18882;DHT22;9573;50.948;11.600;2024-02-26T13:21:20;13.50;99.90
18882;DHT22;9573;50.948;11.600;2024-02-26T13:23:49;13.30;99.90
18882;DHT22;9573;50.948;11.600;2024-02-26T13:26:22;13.10;99.90
18882;DHT22;9573;50.948;11.600;2024-02-26T13:29:00;12.70;99.90
18882;DHT22;9573;50.948;11.600;2024-02-26T13:31:29;12.50;99.90
18882;DHT22;9573;50.948;11.600;2024-02-26T13:33:56;12.30;99.90
18882;DHT22;9573;50.948;11.600;2024-02-26T13:36:24;12.30;99.90
18882;DHT22;9573;50.948;11.600;2024-02-26T13:38:51;12.30;99.90
18882;DHT22;9573;50.948;11.600;2024-02-26T13:41:19;12.40;99.90
18882;DHT22;9573;50.948;11.600;2024-02-26T13:43:47;12.20;99.90
18882;DHT22;9573;50.948;11.600;2024-02-26T13:46:14;12.00;99.90
18882;DHT22;9573;50.948;11.600;2024-02-26T13:48:42;11.90;99.90
18882;DHT22;9573;50.948;11.600;2024-02-26T13:51:09;11.90;99.90
18882;DHT22;9573;50.948;11.600;2024-02-26T13:53:36;12.00;99.90
18882;DHT22;9573;50.948;11.600;2024-02-26T13:56:04;11.90;99.90
18882;DHT22;9573;50.948;11.600;2024-02-26T13:58:34;12.00;99.90
18882;DHT22;9573;50.948;11.600;2024-02-26T14:01:01;12.00;99.90
18882;DHT22;9573;50.948;11.600;2024-02-26T14:03:29;11.90;99.90
18882;DHT22;9573;50.948;11.600;2024-02-26T14:05:56;11.90;99.90
18882;DHT22;9573;50.948;11.600;2024-02-26T14:08:24;11.80;99.90
18882;DHT22;9573;50.948;11.600;2024-02-26T14:10:51;11.70;99.90
18882;DHT22;9573;50.948;11.600;2024-02-26T14:13:18;11.60;99.90
18882;DHT22;9573;50.948;11.600;2024-02-26T14:15:46;11.60;99.90
18882;DHT22;9573;50.948;11.600;2024-02-26T14:18:13;11.50;99.90
18882;DHT22;9573;50.948;11.600;2024-02-26T14:20:40;11.50;99.90
18882;DHT22;9573;50.948;11.600;2024-02-26T14:23:08;11.50;99.90
18882;DHT22;9573;50.948;11.600;2024-02-26T14:25:34;11.60;99.90
18882;DHT22;9573;50.948;11.600;2024-02-26T14:28:05;11.60;99.90
18882;DHT22;9573;50.948;11.600;2024-02-26T14:30:32;12.00;99.90
18882;DHT22;9573;50.948;11.600;2024-02-26T14:33:01;11.70;99.90
18882;DHT22;9573;50.948;11.600;2024-02-26T14:35:30;11.90;99.90
18882;DHT22;9573;50.948;11.600;2024-02-26T14:37:57;12.30;99.90
18882;DHT22;9573;50.948;11.600;2024-02-26T14:40:31;12.70;99.90
18882;DHT22;9573;50.948;11.600;2024-02-26T14:43:13;13.10;99.90
18882;DHT22;9573;50.948;11.600;2024-02-26T14:45:43;13.40;99.90
18882;DHT22;9573;50.948;11.600;2024-02-26T14:51:04;13.30;99.90
18882;DHT22;9573;50.948;11.600;2024-02-26T14:53:35;13.40;99.90
18882;DHT22;9573;50.948;11.600;2024-02-26T14:56:02;13.30;99.90
18882;DHT22;9573;50.948;11.600;2024-02-26T14:58:30;13.10;99.90
18882;DHT22;9573;50.948;11.600;2024-02-26T15:00:57;12.80;99.90
18882;DHT22;9573;50.948;11.600;2024-02-26T15:03:25;12.60;99.90
18882;DHT22;9573;50.948;11.600;2024-02-26T15:05:53;12.30;99.90
18882;DHT22;9573;50.948;11.600;2024-02-26T15:08:20;12.00;99.90
18882;DHT22;9573;50.948;11.600;2024-02-26T15:10:47;11.90;99.90
18882;DHT22;9573;50.948;11.600;2024-02-26T15:13:14;11.80;99.90
18882;DHT22;9573;50.948;11.600;2024-02-26T15:15:43;11.70;99.90
18882;DHT22;9573;50.948;11.600;2024-02-26T15:18:11;11.60;99.90
18882;DHT22;9573;50.948;11.600;2024-02-26T15:20:43;11.60;99.90
18882;DHT22;9573;50.948;11.600;2024-02-26T15:23:12;11.50;99.90
18882;DHT22;9573;50.948;11.600;2024-02-26T15:25:43;11.50;99.90
18882;DHT22;9573;50.948;11.600;2024-02-26T15:28:10;11.50;99.90
18882;DHT22;9573;50.948;11.600;2024-02-26T15:30:40;11.60;99.90
18882;DHT22;9573;50.948;11.600;2024-02-26T15:33:07;11.50;99.90
18882;DHT22;9573;50.948;11.600;2024-02-26T15:35:35;11.60;99.90
18882;DHT22;9573;50.948;11.600;2024-02-26T15:38:04;11.50;99.90
18882;DHT22;9573;50.948;11.600;2024-02-26T15:40:31;11.40;99.90
18882;DHT22;9573;50.948;11.600;2024-02-26T15:42:58;12.80;99.90
18882;DHT22;9573;50.948;11.600;2024-02-26T15:45:25;11.20;99.90